Bendorf, Germania

03:12 PM CET die 25o January, anno 2015 (GMT +0100)
Siegerland | Change Station
CLOSE
Current Station
Airport
Location: SIEGERLAND,
Elevation: 1965 ft
Nearby Weather Stations

Elev 1965 ft 50.71 °N, 8.08 °E | Updated 22 minutes ago

Light Freezing Fog
Caligo Gelida Levis
32 °F
Feels Like 26 °F
N
6
Ventus Variabilis Ventus from Zephyrus

Hodie
High -- | Low -- °F
--% Chance of Precip.
Yesterday
High -- | Low -- °F
Precip. -- in
8:14 AM 5:10 PM
Waxing Crescent, 32% visible
Pressio 30.30 in
Visibilitas 0.1 milia passuum
Clouds
Frigus Venti 26 °F
Frigus in quo Ros apparet 32 °F
Umor 100%
Rainfall 0.00 in
Snow Depth Not available.
UV Not available.
Pollen Not available.
Air Quality Not available.
Flu Activity Not available.
METAR EDGS 251350Z 28005KT 250V320 0200 0150NE R31/0225N FZFG VV/// M00/M00 Q1026

More Conditions Fewer Conditions

Pressio 30.30 in
Visibilitas 0.1 milia passuum
Clouds
Frigus Venti 26 °F
Frigus in quo Ros apparet 32 °F
Umor 100%
Rainfall 0.00 in
Snow Depth Not available.
UV Not available.
Pollen Not available.
Air Quality Not available.
Flu Activity Not available.
METAR EDGS 251350Z 28005KT 250V320 0200 0150NE R31/0225N FZFG VV/// M00/M00 Q1026

More Conditions Fewer Conditions

10-Day Weather Forecast

Almanac

Astronomy

Jan. 25, 2015 Rise Set
Actual Time
Civil Twilight
Nautical Twilight
Astronomical Twilight
Moon
Length Of Visible Light
Length of Day
Tomorrow will be .
, % of the Moon is Illuminated

Today's Extremes

Country Highs Country Lows

Community

WunderPhotos

Upload Photos

1,789,893 photos uploaded!

WunderBlogs® & News

Nearby

Air Quality

  Air Quality AQ Index Pollutant
Not available.

Snow Depth

Station Depth Elevation

Earthquake Activity

City Distance Mag. Time & Date
Minimum magnitude displayed is 2.5.

Coastal Water Temperatures

Locus Calor

Nearby Weather Stations